Flight Track Log - Related Links

Times and Time Zones

All times are in EDT time to prevent confusion due to time zone crossing. See the SWA2966 flight status page for this flight to view local times or setup timezone preferences in your user account.

Time Position Orientation Groundspeed Altitude Reporting Facility
EDT Latitude Longitude Course Direction KTS MPH feet Rate Location/Type
Sun 03:25:30 PM 37.7000 -122.2000 139° Southeast 154 177 1,300  Level Northern Cal TRACON
Sun 03:26:25 PM 37.6692 -122.1667 139° Southeast 186 214 2,700 2,256 Climbing Oakland Center
Sun 03:27:27 PM 37.6222 -122.1311 149° Southeast 195 224 5,700 3,366 Climbing Oakland Center
Sun 03:28:28 PM 37.5656 -122.1564 199° South 212 244 9,600 3,463 Climbing Oakland Center
Sun 03:29:30 PM 37.4914 -122.1628 184° South 278 320 12,800 3,659 Climbing Oakland Center
Sun 03:30:31 PM 37.4081 -122.0886 145° Southeast 306 352 17,100 3,659 Climbing Oakland Center
Sun 03:31:33 PM 37.3294 -122.0222 146° Southeast 337 388 20,300 3,171 Climbing Oakland Center
Sun 03:32:34 PM 37.2575 -121.9339 136° Southeast 369 425 23,600 2,707 Climbing Oakland Center
Sun 03:34:37 PM 37.1169 -121.7169 129° Southeast 398 458 28,600 2,217 Climbing Oakland Center
Sun 03:35:38 PM 37.0481 -121.6089 129° Southeast 412 474 30,400 1,756 Climbing Oakland Center
Sun 03:36:40 PM 36.9725 -121.4939 129° Southeast 424 488 32,200 1,707 Climbing Oakland Center
Sun 03:37:41 PM 36.8961 -121.3733 128° Southeast 439 505 33,900 1,756 Climbing Oakland Center
Sun 03:38:43 PM 36.8028 -121.2322 130° Southeast 451 519 35,800 2,000 Climbing Oakland Center
Sun 03:39:44 PM 36.7233 -121.1111 129° Southeast 451 519 38,000 1,561 Climbing Oakland Center
Sun 03:40:46 PM 36.6464 -120.9936 129° Southeast 443 510 39,000 488 Climbing Oakland Center
Sun 03:41:47 PM 36.5689 -120.8756 129° Southeast 440 506 39,000  Level Oakland Center
Sun 03:42:49 PM 36.4894 -120.7567 130° Southeast 445 512 39,000  Level Oakland Center
Sun 03:43:50 PM 36.4089 -120.6336 129° Southeast 456 525 39,000  Level Oakland Center
Sun 03:44:52 PM 36.3267 -120.5136 130° Southeast 456 525 39,000  Level Oakland Center
Sun 03:46:55 PM 36.1444 -120.2386 129° Southeast 461 531 39,000  Level Oakland Center
Sun 03:47:56 PM 36.0617 -120.1153 130° Southeast 464 534 39,000  Level Oakland Center
Sun 03:48:57 PM 35.9794 -119.9983 131° Southeast 451 519 39,000  Level Oakland Center
Sun 03:49:59 PM 35.8983 -119.8783 130° Southeast 449 517 39,000  Level Oakland Center
Sun 03:51:00 PM 35.8144 -119.7556 130° Southeast 459 528 39,000  Level Oakland Center
Sun 03:52:02 PM 35.7328 -119.6344 130° Southeast 459 528 39,000  Level Oakland Center
Sun 03:53:03 PM 35.6494 -119.5153 131° Southeast 459 528 39,000  Level Oakland Center
Sun 03:54:22 PM 35.5372 -119.3503 130° Southeast 449 517 39,000 -383 Level Los Angeles Center
Sun 03:55:24 PM 35.4564 -119.2325 130° Southeast 450 518 38,100 -919 Descending Los Angeles Center
Sun 03:56:26 PM 35.3772 -119.1175 130° Southeast 444 511 37,100 -968 Descending Los Angeles Center
Sun 03:57:28 PM 35.2950 -119.0017 131° Southeast 447 514 36,100 -919 Descending Los Angeles Center
Sun 03:58:30 PM 35.2167 -118.8864 130° Southeast 444 511 35,200 -1,548 Descending Los Angeles Center
Sun 03:59:32 PM 35.1178 -118.7489 131° Southeast 447 514 32,900 -2,129 Descending Los Angeles Center
Sun 04:00:34 PM 35.0406 -118.6383 130° Southeast 431 496 30,800 -2,016 Descending Los Angeles Center
Sun 04:01:37 PM 34.9672 -118.5339 131° Southeast 409 471 28,700 -1,920 Descending Los Angeles Center
Sun 04:02:39 PM 34.9006 -118.4403 131° Southeast 395 455 26,800 -1,790 Descending Los Angeles Center
Sun 04:03:41 PM 34.8328 -118.3467 131° Southeast 375 432 25,000 -1,355 Descending Los Angeles Center
Sun 04:04:00 PM 34.7966 -118.3120 131° Southeast  Level FlightAware Approximate
Sun 04:04:43 PM 34.7539 -118.2364 131° Southeast 360 414 24,000  Level Los Angeles Center
Sun 04:05:57 PM 34.6867 -118.1433 131° Southeast 368 423 23,800 -618 Descending Los Angeles Center
Sun 04:06:59 PM 34.6092 -118.0192 127° Southeast 385 443 22,600 -1,584 Descending Los Angeles Center
Sun 04:08:02 PM 34.5589 -117.9075 119° Southeast 381 438 20,500 -2,304 Descending Los Angeles Center
Sun 04:09:04 PM 34.4983 -117.7764 119° Southeast 376 433 17,800 -2,371 Descending Los Angeles Center
Sun 04:10:06 PM 34.4492 -117.6706 119° Southeast 366 421 15,600 -1,839 Descending Los Angeles Center
Sun 04:11:08 PM 34.4022 -117.5667 119° Southeast 359 413 14,000 -1,161 Descending Los Angeles Center
Sun 04:12:10 PM 34.3611 -117.4717 118° Southeast 317 365 13,200 -759 Descending Los Angeles Center
Sun 04:13:46 PM 34.2833 -117.3333 124° Southeast 297 342 12,000 -581 Descending Southern California TRACON
Sun 04:14:14 PM 34.2631 -117.3103 137° Southeast 284 327 12,000 -467 Level Los Angeles Center
Sun 04:15:16 PM 34.1975 -117.2583 147° Southeast 245 282 11,300 -1,680 Descending Los Angeles Center
Sun 04:16:19 PM 34.1328 -117.2750 192° South 242 278 8,500 -2,600 Descending Los Angeles Center
Sun 04:16:46 PM 34.1000 -117.2833 192° South 244 281 7,400 -2,561 Descending Southern California TRACON
Sun 04:17:41 PM 34.0333 -117.3000 192° South 244 281 5,000 -1,537 Descending Southern California TRACON
Sun 04:18:47 PM 34.0333 -117.3667 270° West 234 269 4,300 -714 Descending Southern California TRACON
Sun 04:19:47 PM 34.0500 -117.4167 292° West 224 258 3,500 -905 Descending Southern California TRACON
Sun 04:20:53 PM 34.0500 -117.5000 270° West 186 214 2,400 -905 Descending Southern California TRACON
Sun 04:21:53 PM 34.0500 -117.5500 270° West 137 158 1,600 -800 Descending Southern California TRACON
Sun 04:24:00 PM 34.0500 -117.6000 276° West  Level FlightAware Approximate
Sun 04:31:00 PM 34.0560 -117.6012 276° West  Level Estimated
Sun 04:32:00 PM 34.0500 -117.6000 276° West  Level FlightAware Approximate

Login

Don't have an account? Register now (free) for customized features, flight alerts, and more!